createdAt,value
2016-09-29T00:00:10.555Z,-89
2016-09-29T00:01:10.567Z,-90
2016-09-29T00:02:10.442Z,-89
2016-09-29T00:03:10.549Z,-89
2016-09-29T00:04:10.770Z,-90
2016-09-29T00:05:11.046Z,-89
2016-09-29T00:06:10.616Z,-90
2016-09-29T00:07:10.588Z,-89
2016-09-29T00:08:10.555Z,-90
2016-09-29T00:09:10.733Z,-89
2016-09-29T00:10:10.530Z,-89
2016-09-29T00:11:10.573Z,-89
2016-09-29T00:12:10.603Z,-89
2016-09-29T00:13:10.511Z,-89
2016-09-29T00:14:10.697Z,-89
2016-09-29T00:15:10.731Z,-90
2016-09-29T00:16:10.545Z,-89
2016-09-29T00:17:10.596Z,-89
2016-09-29T00:18:10.610Z,-89
2016-09-29T00:19:10.636Z,-90
2016-09-29T00:20:10.627Z,-90
2016-09-29T00:21:10.609Z,-90
2016-09-29T00:22:10.598Z,-90
2016-09-29T00:23:10.723Z,-89
2016-09-29T00:24:10.725Z,-89
2016-09-29T00:25:10.856Z,-90
2016-09-29T00:26:10.494Z,-89
2016-09-29T00:27:10.723Z,-89
2016-09-29T00:28:10.613Z,-90
2016-09-29T00:29:10.710Z,-90
2016-09-29T00:30:10.642Z,-89
2016-09-29T00:31:10.904Z,-89
2016-09-29T00:32:10.716Z,-89
2016-09-29T00:33:10.701Z,-89
2016-09-29T00:34:10.667Z,-89
2016-09-29T00:35:10.647Z,-89
2016-09-29T00:36:10.641Z,-90
2016-09-29T00:37:10.765Z,-89
2016-09-29T00:38:10.635Z,-89
2016-09-29T00:39:10.707Z,-90
2016-09-29T00:40:10.724Z,-89
2016-09-29T00:41:10.744Z,-90
2016-09-29T00:42:10.742Z,-89
2016-09-29T00:43:10.739Z,-89
2016-09-29T00:44:10.574Z,-89
2016-09-29T00:45:10.641Z,-90
2016-09-29T00:46:10.621Z,-90
2016-09-29T00:47:10.791Z,-89
2016-09-29T00:48:10.741Z,-89
2016-09-29T00:49:10.714Z,-89
2016-09-29T00:50:10.752Z,-88
2016-09-29T00:51:10.722Z,-89
2016-09-29T00:52:10.811Z,-89
2016-09-29T00:53:10.660Z,-90
2016-09-29T00:54:10.712Z,-89
2016-09-29T00:55:10.732Z,-89
2016-09-29T00:56:10.593Z,-89
2016-09-29T00:57:11.034Z,-89
2016-09-29T00:58:10.775Z,-89
2016-09-29T00:59:10.698Z,-88
2016-09-29T01:00:10.652Z,-90
2016-09-29T01:01:10.749Z,-89
2016-09-29T01:02:10.771Z,-89
2016-09-29T01:03:11.093Z,-90
2016-09-29T01:04:10.744Z,-90
2016-09-29T01:05:10.681Z,-89
2016-09-29T01:06:10.758Z,-89
2016-09-29T01:07:10.795Z,-90
2016-09-29T01:08:10.851Z,-88
2016-09-29T01:09:10.762Z,-88
2016-09-29T01:10:10.673Z,-88
2016-09-29T01:11:10.795Z,-88
2016-09-29T01:12:10.774Z,-88
2016-09-29T01:13:10.890Z,-89
2016-09-29T01:14:10.766Z,-88
2016-09-29T01:15:10.838Z,-89
2016-09-29T01:16:10.860Z,-89
2016-09-29T01:17:10.640Z,-89
2016-09-29T01:18:10.875Z,-89
2016-09-29T01:19:11.239Z,-89
2016-09-29T01:20:10.661Z,-88
2016-09-29T01:21:10.884Z,-88
2016-09-29T01:22:10.877Z,-89
2016-09-29T01:23:10.775Z,-89
2016-09-29T01:24:11.181Z,-89
2016-09-29T01:25:10.807Z,-89
2016-09-29T01:26:10.891Z,-90
2016-09-29T01:27:10.691Z,-89
2016-09-29T01:28:10.853Z,-89
2016-09-29T01:29:10.958Z,-90
2016-09-29T01:30:10.908Z,-89
2016-09-29T01:31:10.870Z,-89
2016-09-29T01:32:10.801Z,-89
2016-09-29T01:33:10.789Z,-89
2016-09-29T01:34:10.812Z,-89
2016-09-29T01:35:11.186Z,-89
2016-09-29T01:36:10.842Z,-88
2016-09-29T01:37:10.762Z,-89
2016-09-29T01:38:10.792Z,-89
2016-09-29T01:39:10.817Z,-89
2016-09-29T01:40:10.921Z,-89
2016-09-29T01:41:10.842Z,-89
2016-09-29T01:42:10.811Z,-89
2016-09-29T01:43:10.927Z,-89
2016-09-29T01:44:10.948Z,-89
2016-09-29T01:45:10.882Z,-89
2016-09-29T01:46:10.893Z,-89
2016-09-29T01:47:10.803Z,-89
2016-09-29T01:48:10.961Z,-90
2016-09-29T01:49:10.877Z,-88
2016-09-29T01:50:10.885Z,-89
2016-09-29T01:51:11.092Z,-89
2016-09-29T01:52:10.851Z,-90
2016-09-29T01:53:10.856Z,-90
2016-09-29T01:54:10.980Z,-89
2016-09-29T01:55:10.857Z,-89
2016-09-29T01:56:10.955Z,-88
2016-09-29T01:57:10.864Z,-89
2016-09-29T01:58:10.937Z,-89
2016-09-29T01:59:10.936Z,-88
2016-09-29T02:00:10.765Z,-88
2016-09-29T02:01:11.003Z,-89
2016-09-29T02:02:10.921Z,-88
2016-09-29T02:03:11.080Z,-89
2016-09-29T02:04:10.790Z,-89
2016-09-29T02:05:10.983Z,-89
2016-09-29T02:06:10.903Z,-89
2016-09-29T02:07:10.999Z,-89
2016-09-29T02:08:10.898Z,-89
2016-09-29T02:09:10.937Z,-89
2016-09-29T02:10:10.866Z,-88
2016-09-29T02:11:10.938Z,-88
2016-09-29T02:12:10.867Z,-88
2016-09-29T02:13:10.940Z,-89
2016-09-29T02:14:10.945Z,-89
2016-09-29T02:15:11.000Z,-89
2016-09-29T02:16:10.958Z,-89
2016-09-29T02:17:10.938Z,-89
2016-09-29T02:18:10.893Z,-89
2016-09-29T02:19:10.984Z,-89
2016-09-29T02:20:10.976Z,-89
2016-09-29T02:21:10.940Z,-88
2016-09-29T02:22:10.962Z,-88
2016-09-29T02:23:11.220Z,-88
2016-09-29T02:24:10.980Z,-89
2016-09-29T02:25:10.955Z,-88
2016-09-29T02:26:11.081Z,-89
2016-09-29T02:27:10.999Z,-89
2016-09-29T02:28:11.024Z,-88
2016-09-29T02:29:10.954Z,-88
2016-09-29T02:30:11.085Z,-89
2016-09-29T02:31:11.000Z,-88
2016-09-29T02:32:11.047Z,-89
2016-09-29T02:33:11.036Z,-88
2016-09-29T02:34:10.946Z,-88
2016-09-29T02:35:11.006Z,-88
2016-09-29T02:36:10.911Z,-88
2016-09-29T02:37:11.134Z,-87
2016-09-29T02:38:11.043Z,-88
2016-09-29T02:39:11.179Z,-88
2016-09-29T02:40:11.073Z,-89
2016-09-29T02:41:11.022Z,-89
2016-09-29T02:42:11.038Z,-89
2016-09-29T02:43:11.041Z,-88
2016-09-29T02:44:11.141Z,-88
2016-09-29T02:45:10.980Z,-89
2016-09-29T02:46:11.123Z,-89
2016-09-29T02:47:11.071Z,-89
2016-09-29T02:48:10.937Z,-88
2016-09-29T02:49:10.985Z,-88
2016-09-29T02:50:11.065Z,-88
2016-09-29T02:51:11.029Z,-89
2016-09-29T02:52:11.045Z,-88
2016-09-29T02:53:11.003Z,-88
2016-09-29T02:54:10.946Z,-89
2016-09-29T02:55:11.177Z,-88
2016-09-29T02:56:11.073Z,-88
2016-09-29T02:57:11.040Z,-88
2016-09-29T02:58:11.119Z,-88
2016-09-29T02:59:11.161Z,-88
2016-09-29T03:00:11.105Z,-89
2016-09-29T03:01:11.060Z,-89
2016-09-29T03:02:11.104Z,-88
2016-09-29T03:03:11.065Z,-89
2016-09-29T03:04:11.089Z,-89
2016-09-29T03:05:11.092Z,-89
2016-09-29T03:06:11.064Z,-88
2016-09-29T03:07:11.138Z,-88
2016-09-29T03:08:11.128Z,-88
2016-09-29T03:09:11.113Z,-89
2016-09-29T03:10:11.038Z,-89
2016-09-29T03:11:11.334Z,-88
2016-09-29T03:12:11.024Z,-89
2016-09-29T03:13:11.077Z,-89
2016-09-29T03:14:11.132Z,-89
2016-09-29T03:15:11.129Z,-88
2016-09-29T03:16:11.126Z,-88
2016-09-29T03:17:11.081Z,-89
2016-09-29T03:18:11.222Z,-88
2016-09-29T03:19:11.218Z,-88
2016-09-29T03:20:11.122Z,-88
2016-09-29T03:21:11.175Z,-89
2016-09-29T03:22:11.158Z,-89
2016-09-29T03:23:11.134Z,-88
2016-09-29T03:24:11.111Z,-88
2016-09-29T03:25:11.261Z,-88
2016-09-29T03:26:11.197Z,-88
2016-09-29T03:27:11.351Z,-89
2016-09-29T03:28:11.136Z,-88
2016-09-29T03:29:11.206Z,-89
2016-09-29T03:30:11.244Z,-88
2016-09-29T03:31:11.094Z,-88
2016-09-29T03:32:11.498Z,-88
2016-09-29T03:33:11.140Z,-88
2016-09-29T03:34:11.196Z,-89
2016-09-29T03:35:11.239Z,-88
2016-09-29T03:36:11.192Z,-88
2016-09-29T03:37:11.196Z,-88
2016-09-29T03:38:11.255Z,-89
2016-09-29T03:39:11.197Z,-88
2016-09-29T03:40:11.072Z,-88
2016-09-29T03:41:11.170Z,-88
2016-09-29T03:42:11.211Z,-88
2016-09-29T03:43:11.412Z,-89
2016-09-29T03:44:11.223Z,-89
2016-09-29T03:45:11.263Z,-88
2016-09-29T03:46:11.155Z,-88
2016-09-29T03:47:11.190Z,-88
2016-09-29T03:48:11.344Z,-88
2016-09-29T03:49:11.321Z,-88
2016-09-29T03:50:11.149Z,-88
2016-09-29T03:51:11.164Z,-88
2016-09-29T03:52:11.237Z,-89
2016-09-29T03:53:11.370Z,-88
2016-09-29T03:54:11.223Z,-88
2016-09-29T03:55:11.242Z,-88
2016-09-29T03:56:11.152Z,-89
2016-09-29T03:57:11.184Z,-88
2016-09-29T03:58:11.273Z,-89
2016-09-29T03:59:11.567Z,-88
2016-09-29T04:00:11.323Z,-87
2016-09-29T04:01:11.280Z,-88
2016-09-29T04:02:11.365Z,-89
2016-09-29T04:03:11.333Z,-88
2016-09-29T04:04:11.333Z,-88
2016-09-29T04:05:11.322Z,-88
2016-09-29T04:06:11.299Z,-89
2016-09-29T04:07:11.220Z,-87
2016-09-29T04:08:11.479Z,-87
2016-09-29T04:09:11.326Z,-87
2016-09-29T04:10:11.250Z,-88
2016-09-29T04:11:11.283Z,-89
2016-09-29T04:12:11.187Z,-89
2016-09-29T04:13:11.343Z,-88
2016-09-29T04:14:11.436Z,-88
2016-09-29T04:15:11.488Z,-89
2016-09-29T04:16:11.346Z,-88
2016-09-29T04:17:11.200Z,-88
2016-09-29T04:18:11.297Z,-88
2016-09-29T04:19:11.278Z,-88
2016-09-29T04:20:11.453Z,-88
2016-09-29T04:21:11.368Z,-88
2016-09-29T04:22:11.326Z,-89
2016-09-29T04:23:11.341Z,-88
2016-09-29T04:24:11.414Z,-88
2016-09-29T04:25:11.377Z,-88
2016-09-29T04:26:11.205Z,-89
2016-09-29T04:27:11.351Z,-88
2016-09-29T04:28:11.307Z,-88
2016-09-29T04:29:11.359Z,-88
2016-09-29T04:30:11.252Z,-89
2016-09-29T04:31:11.374Z,-88
2016-09-29T04:32:11.422Z,-88
2016-09-29T04:33:11.452Z,-88
2016-09-29T04:34:11.401Z,-87
2016-09-29T04:35:11.328Z,-89
2016-09-29T04:36:11.353Z,-88
2016-09-29T04:37:11.334Z,-87
2016-09-29T04:38:11.284Z,-89
2016-09-29T04:39:11.376Z,-88
2016-09-29T04:40:11.315Z,-87
2016-09-29T04:41:11.404Z,-88
2016-09-29T04:42:11.349Z,-88
2016-09-29T04:43:11.386Z,-88
2016-09-29T04:44:11.409Z,-88
2016-09-29T04:45:11.398Z,-88
2016-09-29T04:46:11.401Z,-89
2016-09-29T04:47:11.518Z,-89
2016-09-29T04:48:11.488Z,-89
2016-09-29T04:49:11.430Z,-89
2016-09-29T04:50:11.302Z,-89
2016-09-29T04:51:11.406Z,-89
2016-09-29T04:52:11.720Z,-89
2016-09-29T04:53:11.419Z,-88
2016-09-29T04:54:11.410Z,-88
2016-09-29T04:55:11.359Z,-88
2016-09-29T04:56:11.414Z,-89
2016-09-29T04:57:11.424Z,-89
2016-09-29T04:58:11.386Z,-87
2016-09-29T04:59:11.469Z,-87
2016-09-29T05:00:11.521Z,-89
2016-09-29T05:01:11.311Z,-88
2016-09-29T05:02:11.402Z,-89
2016-09-29T05:03:11.748Z,-88
2016-09-29T05:04:11.429Z,-88
2016-09-29T05:05:11.392Z,-88
2016-09-29T05:06:11.454Z,-89
2016-09-29T05:07:11.339Z,-88
2016-09-29T05:08:11.617Z,-89
2016-09-29T05:09:11.514Z,-89
2016-09-29T05:10:11.433Z,-89
2016-09-29T05:11:11.462Z,-88
2016-09-29T05:12:11.574Z,-88
2016-09-29T05:13:11.472Z,-88
2016-09-29T05:14:11.441Z,-88
2016-09-29T05:15:11.513Z,-88
2016-09-29T05:16:11.409Z,-88
2016-09-29T05:17:11.469Z,-89
2016-09-29T05:18:11.509Z,-88
2016-09-29T05:19:11.650Z,-88
2016-09-29T05:20:11.577Z,-88
2016-09-29T05:21:11.539Z,-88
2016-09-29T05:22:11.547Z,-88
2016-09-29T05:23:11.550Z,-89
2016-09-29T05:24:11.608Z,-89
2016-09-29T05:25:11.715Z,-89
2016-09-29T05:26:11.374Z,-88
2016-09-29T05:27:11.578Z,-88
2016-09-29T05:28:11.590Z,-89
2016-09-29T05:29:11.770Z,-88
2016-09-29T05:30:11.506Z,-88
2016-09-29T05:31:11.473Z,-88
2016-09-29T05:32:11.604Z,-89
2016-09-29T05:33:11.537Z,-88
2016-09-29T05:34:11.555Z,-88
2016-09-29T05:35:12.028Z,-88
2016-09-29T05:36:11.493Z,-88
2016-09-29T05:37:11.489Z,-88
2016-09-29T05:38:11.531Z,-89
2016-09-29T05:39:11.613Z,-88
2016-09-29T05:40:11.662Z,-88
2016-09-29T05:41:11.562Z,-88
2016-09-29T05:42:11.518Z,-88
2016-09-29T05:43:11.492Z,-88
2016-09-29T05:44:11.420Z,-88
2016-09-29T05:45:11.644Z,-88
2016-09-29T05:46:11.682Z,-88
2016-09-29T05:47:11.627Z,-88
2016-09-29T05:48:11.566Z,-88
2016-09-29T05:49:11.649Z,-88
2016-09-29T05:50:11.561Z,-88
2016-09-29T05:51:11.635Z,-88
2016-09-29T05:52:11.669Z,-88
2016-09-29T05:53:11.549Z,-89
2016-09-29T05:54:11.605Z,-88
2016-09-29T05:55:11.634Z,-88
2016-09-29T05:56:11.676Z,-89
2016-09-29T05:57:11.640Z,-89
2016-09-29T05:58:11.594Z,-88
2016-09-29T05:59:11.601Z,-88
2016-09-29T06:00:11.640Z,-88
2016-09-29T06:01:11.713Z,-88
2016-09-29T06:02:11.520Z,-89
2016-09-29T06:03:11.659Z,-93
2016-09-29T06:04:11.616Z,-84
2016-09-29T06:05:11.604Z,-84
2016-09-29T06:06:11.503Z,-83
2016-09-29T06:07:11.741Z,-83
2016-09-29T06:08:11.629Z,-83
2016-09-29T06:09:11.667Z,-84
2016-09-29T06:10:11.513Z,-84
2016-09-29T06:11:11.685Z,-84
2016-09-29T06:12:11.680Z,-84
2016-09-29T06:13:11.565Z,-83
2016-09-29T06:14:11.692Z,-84
2016-09-29T06:15:11.720Z,-84
2016-09-29T06:16:11.563Z,-84
2016-09-29T06:17:11.682Z,-84
2016-09-29T06:18:11.653Z,-83
2016-09-29T06:19:11.653Z,-88
2016-09-29T06:20:11.622Z,-84
2016-09-29T06:21:11.770Z,-83
2016-09-29T06:22:11.682Z,-83
2016-09-29T06:23:11.760Z,-83
2016-09-29T06:24:11.525Z,-84
2016-09-29T06:25:11.661Z,-83
2016-09-29T06:26:11.710Z,-83
2016-09-29T06:27:11.767Z,-84
2016-09-29T06:28:11.741Z,-83
2016-09-29T06:29:11.730Z,-84
2016-09-29T06:30:11.716Z,-83
2016-09-29T06:31:11.726Z,-84
2016-09-29T06:32:11.782Z,-84
2016-09-29T06:33:11.685Z,-84
2016-09-29T06:34:11.704Z,-84
2016-09-29T06:35:11.634Z,-84
2016-09-29T06:36:11.774Z,-84
2016-09-29T06:37:11.804Z,-84
2016-09-29T06:38:11.729Z,-84
2016-09-29T06:39:12.030Z,-84
2016-09-29T06:40:11.736Z,-84
2016-09-29T06:41:11.773Z,-84
2016-09-29T06:42:11.705Z,-84
2016-09-29T06:43:11.775Z,-85
2016-09-29T06:44:11.897Z,-85
2016-09-29T06:45:11.639Z,-85
2016-09-29T06:46:11.717Z,-84
2016-09-29T06:47:11.823Z,-85
2016-09-29T06:48:11.835Z,-85
2016-09-29T06:49:11.887Z,-84
2016-09-29T06:50:11.891Z,-84
2016-09-29T06:51:11.856Z,-85
2016-09-29T06:52:11.643Z,-85
2016-09-29T06:53:11.711Z,-85
2016-09-29T06:54:11.820Z,-86
2016-09-29T06:55:12.119Z,-84
2016-09-29T06:56:11.751Z,-84
2016-09-29T06:57:11.774Z,-85
2016-09-29T06:58:11.862Z,-85
2016-09-29T06:59:11.788Z,-86
2016-09-29T07:00:11.836Z,-85
2016-09-29T07:01:11.716Z,-83
2016-09-29T07:02:11.731Z,-89
2016-09-29T07:03:11.879Z,-89
2016-09-29T07:04:11.785Z,-89
2016-09-29T07:05:12.060Z,-87
2016-09-29T07:06:11.686Z,-87
2016-09-29T07:07:11.711Z,-88
2016-09-29T07:08:11.856Z,-88
2016-09-29T07:09:11.760Z,-89
2016-09-29T07:10:11.839Z,-91
2016-09-29T07:11:12.036Z,-91
2016-09-29T07:12:11.728Z,-90
2016-09-29T07:13:11.933Z,-90
2016-09-29T07:14:11.747Z,-90
2016-09-29T07:15:11.910Z,-90
2016-09-29T07:16:11.926Z,-89
2016-09-29T07:17:11.905Z,-89
2016-09-29T07:18:12.265Z,-90
2016-09-29T07:19:45.145Z,-90
2016-09-29T07:20:41.208Z,-90
2016-09-29T07:21:23.822Z,-90
2016-09-29T07:22:21.286Z,-91
2016-09-29T07:23:11.868Z,-90
2016-09-29T07:24:11.876Z,-91
2016-09-29T07:25:11.783Z,-90
2016-09-29T07:26:12.058Z,-90
2016-09-29T07:27:11.935Z,-90
2016-09-29T07:28:11.794Z,-90
2016-09-29T07:29:11.862Z,-89
2016-09-29T07:30:11.876Z,-90
2016-09-29T07:31:11.866Z,-90
2016-09-29T07:32:11.956Z,-91
2016-09-29T07:33:11.869Z,-91
2016-09-29T07:34:11.830Z,-90
2016-09-29T07:35:11.945Z,-90
2016-09-29T07:36:11.875Z,-90
2016-09-29T07:37:11.903Z,-89
2016-09-29T07:38:11.973Z,-91
2016-09-29T07:39:12.238Z,-90
2016-09-29T07:40:12.604Z,-88
2016-09-29T07:41:12.045Z,-89
2016-09-29T07:42:12.341Z,-92
2016-09-29T07:43:11.956Z,-89
2016-09-29T07:44:11.961Z,-89
2016-09-29T07:45:11.957Z,-90
2016-09-29T07:46:11.911Z,-89
2016-09-29T07:47:11.843Z,-90
2016-09-29T07:48:11.965Z,-89
2016-09-29T07:49:11.888Z,-89
2016-09-29T07:50:12.007Z,-89
2016-09-29T07:51:11.989Z,-89
2016-09-29T07:52:11.907Z,-90
2016-09-29T07:53:12.203Z,-90
2016-09-29T07:54:11.859Z,-90
2016-09-29T07:55:11.975Z,-90
2016-09-29T07:56:12.007Z,-89
2016-09-29T07:57:11.942Z,-90
2016-09-29T07:58:12.102Z,-90
2016-09-29T07:59:11.951Z,-90
2016-09-29T08:00:11.860Z,-89
2016-09-29T08:01:12.045Z,-90
2016-09-29T08:02:11.980Z,-89
2016-09-29T08:03:11.904Z,-90
2016-09-29T08:04:11.980Z,-90
2016-09-29T08:05:12.000Z,-90
2016-09-29T08:06:12.027Z,-90
2016-09-29T08:07:11.970Z,-89
2016-09-29T08:08:11.955Z,-90
2016-09-29T08:09:11.983Z,-90
2016-09-29T08:10:12.007Z,-89
2016-09-29T08:11:12.099Z,-90
2016-09-29T08:12:11.935Z,-89
2016-09-29T08:13:12.031Z,-89
2016-09-29T08:14:12.469Z,-90
2016-09-29T08:15:11.940Z,-90
2016-09-29T08:16:12.046Z,-89
2016-09-29T08:17:12.064Z,-88
2016-09-29T08:18:12.052Z,-90
2016-09-29T08:19:12.017Z,-89
2016-09-29T08:20:12.177Z,-90
2016-09-29T08:21:11.948Z,-88
2016-09-29T08:22:12.021Z,-89
2016-09-29T08:23:11.902Z,-91
2016-09-29T08:24:11.868Z,-89
2016-09-29T08:25:12.367Z,-90
2016-09-29T08:26:11.939Z,-90
2016-09-29T08:27:12.007Z,-90
2016-09-29T08:28:11.992Z,-89
2016-09-29T08:29:11.984Z,-90
2016-09-29T08:30:12.400Z,-89
2016-09-29T08:31:12.101Z,-90
2016-09-29T08:32:12.009Z,-91
2016-09-29T08:33:12.163Z,-91
2016-09-29T08:34:12.074Z,-93
2016-09-29T08:35:12.079Z,-92
2016-09-29T08:36:12.257Z,-93
2016-09-29T08:37:12.031Z,-91
2016-09-29T08:38:12.068Z,-90
2016-09-29T08:39:12.006Z,-90
2016-09-29T08:40:12.165Z,-90
2016-09-29T08:41:12.250Z,-90
2016-09-29T08:42:12.087Z,-91
2016-09-29T08:43:12.101Z,-91
2016-09-29T08:44:12.044Z,-92
2016-09-29T08:45:12.200Z,-91
2016-09-29T08:46:12.357Z,-90
2016-09-29T08:47:12.096Z,-91
2016-09-29T08:48:12.121Z,-90
2016-09-29T08:49:12.067Z,-89
2016-09-29T08:50:12.202Z,-90
2016-09-29T08:51:12.113Z,-91
2016-09-29T08:52:12.035Z,-92
2016-09-29T08:53:12.030Z,-91
2016-09-29T08:54:12.114Z,-91
2016-09-29T08:55:12.086Z,-91
2016-09-29T08:56:12.214Z,-90
2016-09-29T08:57:12.286Z,-90
2016-09-29T08:58:12.115Z,-92
2016-09-29T08:59:12.202Z,-91
2016-09-29T09:00:12.118Z,-91
2016-09-29T09:01:12.171Z,-91
2016-09-29T09:02:12.599Z,-90
2016-09-29T09:03:12.173Z,-92
2016-09-29T09:04:12.261Z,-90
2016-09-29T09:05:12.162Z,-91
2016-09-29T09:06:12.127Z,-91
2016-09-29T09:07:12.120Z,-90
2016-09-29T09:08:12.661Z,-91
2016-09-29T09:09:12.138Z,-89
2016-09-29T09:10:12.182Z,-90
2016-09-29T09:11:12.157Z,-88
2016-09-29T09:12:12.167Z,-89
2016-09-29T09:13:12.446Z,-89
2016-09-29T09:14:12.656Z,-90
2016-09-29T09:15:13.098Z,-91
2016-09-29T09:16:12.227Z,-91
2016-09-29T09:17:12.234Z,-89
2016-09-29T09:18:12.402Z,-89
2016-09-29T09:19:12.260Z,-90
2016-09-29T09:20:12.098Z,-90
2016-09-29T09:21:12.245Z,-91
2016-09-29T09:22:12.196Z,-91
2016-09-29T09:23:12.302Z,-90
2016-09-29T09:24:12.446Z,-93
2016-09-29T09:25:12.295Z,-94
2016-09-29T09:26:12.160Z,-94
2016-09-29T09:27:12.111Z,-91
2016-09-29T09:28:12.211Z,-92
2016-09-29T09:29:12.425Z,-91
2016-09-29T09:30:12.197Z,-91
2016-09-29T09:31:12.291Z,-92
2016-09-29T09:32:12.256Z,-92
2016-09-29T09:33:12.324Z,-91
2016-09-29T09:34:12.656Z,-91
2016-09-29T09:35:12.269Z,-92
2016-09-29T09:36:12.236Z,-91
2016-09-29T09:37:12.386Z,-91
2016-09-29T09:38:12.213Z,-93
2016-09-29T09:39:12.113Z,-91
2016-09-29T09:40:12.865Z,-93
2016-09-29T09:41:12.212Z,-91
2016-09-29T09:42:12.359Z,-91
2016-09-29T09:43:12.393Z,-92
2016-09-29T09:44:12.314Z,-91
2016-09-29T09:45:12.377Z,-94
2016-09-29T09:46:12.323Z,-92
2016-09-29T09:47:12.250Z,-92
2016-09-29T09:48:12.305Z,-92
2016-09-29T09:49:12.246Z,-93
2016-09-29T09:50:12.351Z,-92
2016-09-29T09:51:12.311Z,-91
2016-09-29T09:52:12.256Z,-91
2016-09-29T09:53:12.174Z,-91
2016-09-29T09:54:12.300Z,-91
2016-09-29T09:55:12.429Z,-92
2016-09-29T09:56:12.320Z,-93
2016-09-29T09:57:12.371Z,-93
2016-09-29T09:58:12.265Z,-90
2016-09-29T09:59:12.564Z,-93
2016-09-29T10:00:12.252Z,-92
2016-09-29T10:01:12.747Z,-93
2016-09-29T10:02:12.408Z,-95
2016-09-29T10:03:12.513Z,-95
2016-09-29T10:04:12.512Z,-91
2016-09-29T10:05:12.472Z,-93
2016-09-29T10:06:12.597Z,-91
2016-09-29T10:07:12.414Z,-92
2016-09-29T10:08:12.374Z,-92
2016-09-29T10:09:12.418Z,-90
2016-09-29T10:10:12.368Z,-90
2016-09-29T10:11:12.366Z,-93
2016-09-29T10:12:12.406Z,-93
2016-09-29T10:13:12.353Z,-92
2016-09-29T10:14:12.327Z,-94
2016-09-29T10:15:12.463Z,-92
2016-09-29T10:16:12.346Z,-94
2016-09-29T10:17:12.389Z,-92
2016-09-29T10:18:12.425Z,-94
2016-09-29T10:19:12.347Z,-92
2016-09-29T10:20:12.407Z,-93
2016-09-29T10:21:12.316Z,-92
2016-09-29T10:22:12.763Z,-93
2016-09-29T10:23:12.505Z,-93
2016-09-29T10:24:12.388Z,-93
2016-09-29T10:25:12.464Z,-93
2016-09-29T10:26:12.386Z,-93
2016-09-29T10:27:12.419Z,-93
2016-09-29T10:28:12.866Z,-92
2016-09-29T10:29:12.540Z,-92
2016-09-29T10:30:12.437Z,-92
2016-09-29T10:31:12.285Z,-92
2016-09-29T10:32:12.285Z,-93
2016-09-29T10:33:12.658Z,-91
2016-09-29T10:34:12.497Z,-92
2016-09-29T10:35:12.313Z,-93
2016-09-29T10:36:12.431Z,-92
2016-09-29T10:37:12.393Z,-90
2016-09-29T10:38:13.039Z,-92
2016-09-29T10:39:12.490Z,-92
2016-09-29T10:40:12.495Z,-91
2016-09-29T10:41:12.530Z,-92
2016-09-29T10:42:12.499Z,-90
2016-09-29T10:43:12.489Z,-92
2016-09-29T10:44:12.837Z,-92
2016-09-29T10:45:12.304Z,-92
2016-09-29T10:46:12.366Z,-90
2016-09-29T10:47:12.384Z,-90
2016-09-29T10:48:12.454Z,-92
2016-09-29T10:49:12.944Z,-91
2016-09-29T10:50:15.003Z,-93
2016-09-29T10:51:16.234Z,-92
2016-09-29T10:52:15.283Z,-93
2016-09-29T10:53:14.074Z,-92
2016-09-29T10:54:15.428Z,-93
2016-09-29T10:55:12.562Z,-92
2016-09-29T10:56:12.486Z,-92
2016-09-29T10:57:13.099Z,-91
2016-09-29T10:58:12.536Z,-93
2016-09-29T10:59:12.504Z,-91
2016-09-29T11:00:13.127Z,-91
2016-09-29T11:01:12.514Z,-91
2016-09-29T11:02:12.615Z,-91
2016-09-29T11:03:12.508Z,-92
2016-09-29T11:04:12.539Z,-91
2016-09-29T11:05:12.530Z,-92
2016-09-29T11:06:12.390Z,-92
2016-09-29T11:07:12.642Z,-92
2016-09-29T11:08:12.552Z,-91
2016-09-29T11:09:12.516Z,-91
2016-09-29T11:10:12.980Z,-90
2016-09-29T11:11:12.529Z,-91
2016-09-29T11:12:12.535Z,-92
2016-09-29T11:13:12.544Z,-91
2016-09-29T11:14:12.458Z,-91
2016-09-29T11:15:12.469Z,-92
2016-09-29T11:16:12.563Z,-93
2016-09-29T11:17:12.519Z,-91
2016-09-29T11:18:12.604Z,-91
2016-09-29T11:19:12.577Z,-91
2016-09-29T11:20:12.609Z,-90
2016-09-29T11:21:12.629Z,-90
2016-09-29T11:22:12.521Z,-92
2016-09-29T11:23:12.599Z,-92
2016-09-29T11:24:12.528Z,-92
2016-09-29T11:25:12.591Z,-91
2016-09-29T11:26:13.199Z,-93
2016-09-29T11:27:13.604Z,-93
2016-09-29T11:28:14.458Z,-92
2016-09-29T11:29:12.675Z,-91
2016-09-29T11:30:12.535Z,-92
2016-09-29T11:31:12.686Z,-93
2016-09-29T11:32:12.472Z,-91
2016-09-29T11:33:12.620Z,-91
2016-09-29T11:34:12.611Z,-94
2016-09-29T11:35:12.599Z,-92
2016-09-29T11:36:12.653Z,-91
2016-09-29T11:37:13.044Z,-91
2016-09-29T11:38:12.631Z,-93
2016-09-29T11:39:12.523Z,-93
2016-09-29T11:40:12.715Z,-93
2016-09-29T11:41:12.621Z,-94
2016-09-29T11:42:12.623Z,-94
2016-09-29T11:43:12.679Z,-93
2016-09-29T11:44:13.256Z,-93
2016-09-29T11:45:12.596Z,-91
2016-09-29T11:46:12.685Z,-91
2016-09-29T11:47:12.649Z,-94
2016-09-29T11:48:12.724Z,-92
2016-09-29T11:49:12.633Z,-92
2016-09-29T11:50:12.583Z,-91
2016-09-29T11:51:12.688Z,-93
2016-09-29T11:52:12.672Z,-94
2016-09-29T11:53:12.998Z,-93
2016-09-29T11:54:12.755Z,-93
2016-09-29T11:55:12.609Z,-93
2016-09-29T11:56:12.777Z,-92
2016-09-29T11:57:12.498Z,-92
2016-09-29T11:58:13.089Z,-92
2016-09-29T11:59:12.593Z,-91
2016-09-29T12:00:12.724Z,-92
2016-09-29T12:01:13.657Z,-94
2016-09-29T12:02:12.650Z,-92
2016-09-29T12:03:12.499Z,-91
2016-09-29T12:04:12.779Z,-91
2016-09-29T12:05:12.714Z,-93
2016-09-29T12:06:12.656Z,-92
2016-09-29T12:07:12.588Z,-93
2016-09-29T12:08:12.788Z,-93
2016-09-29T12:09:12.695Z,-91
2016-09-29T12:10:13.224Z,-92
2016-09-29T12:11:12.679Z,-91
2016-09-29T12:12:12.629Z,-90
2016-09-29T12:13:12.721Z,-90
2016-09-29T12:14:12.766Z,-90
2016-09-29T12:15:13.827Z,-91
2016-09-29T12:16:12.662Z,-91
2016-09-29T12:17:12.705Z,-90
2016-09-29T12:18:12.685Z,-90
2016-09-29T12:19:12.634Z,-89
2016-09-29T12:20:13.043Z,-90
2016-09-29T12:21:12.824Z,-90
2016-09-29T12:22:12.809Z,-89
2016-09-29T12:23:12.807Z,-91
2016-09-29T12:24:12.783Z,-92
2016-09-29T12:25:13.109Z,-92
2016-09-29T12:26:12.850Z,-92
2016-09-29T12:27:12.797Z,-89
2016-09-29T12:28:12.677Z,-91
2016-09-29T12:29:12.707Z,-91
2016-09-29T12:30:12.901Z,-90
2016-09-29T12:31:12.785Z,-89
2016-09-29T12:32:12.759Z,-90
2016-09-29T12:33:12.755Z,-92
2016-09-29T12:34:12.725Z,-94
2016-09-29T12:35:12.768Z,-91
2016-09-29T12:36:13.075Z,-91
2016-09-29T12:37:12.847Z,-93
2016-09-29T12:38:12.845Z,-91
2016-09-29T12:39:12.778Z,-91
2016-09-29T12:40:12.781Z,-91
2016-09-29T12:41:12.981Z,-91
2016-09-29T12:42:12.728Z,-92
2016-09-29T12:43:12.807Z,-92
2016-09-29T12:44:12.682Z,-93
2016-09-29T12:45:12.765Z,-93
2016-09-29T12:46:16.029Z,-93
2016-09-29T12:47:12.766Z,-91
2016-09-29T12:48:12.750Z,-91
2016-09-29T12:49:12.842Z,-90
2016-09-29T12:50:12.834Z,-89
2016-09-29T12:51:12.870Z,-91
2016-09-29T12:52:12.909Z,-91
2016-09-29T12:53:12.831Z,-90
2016-09-29T12:54:12.803Z,-92
2016-09-29T12:55:12.694Z,-92
2016-09-29T12:56:12.808Z,-91
2016-09-29T12:57:13.205Z,-90
2016-09-29T12:58:12.894Z,-91
2016-09-29T12:59:13.940Z,-91
2016-09-29T13:00:12.745Z,-92
2016-09-29T13:01:12.893Z,-90
2016-09-29T13:02:13.284Z,-91
2016-09-29T13:03:12.784Z,-90
2016-09-29T13:04:12.792Z,-90
2016-09-29T13:05:16.754Z,-90
2016-09-29T13:06:12.879Z,-90
2016-09-29T13:07:12.898Z,-90
2016-09-29T13:08:13.209Z,-90
2016-09-29T13:09:12.981Z,-92
2016-09-29T13:10:12.894Z,-92
2016-09-29T13:11:12.905Z,-92
2016-09-29T13:12:12.943Z,-91
2016-09-29T13:13:12.963Z,-91
2016-09-29T13:14:12.887Z,-91
2016-09-29T13:15:12.963Z,-91
2016-09-29T13:16:12.851Z,-91
2016-09-29T13:17:12.931Z,-93
2016-09-29T13:18:13.102Z,-91
2016-09-29T13:19:12.962Z,-91
2016-09-29T13:20:13.018Z,-92
2016-09-29T13:21:13.009Z,-90
2016-09-29T13:22:12.929Z,-90
2016-09-29T13:23:12.960Z,-89
2016-09-29T13:24:12.975Z,-91
2016-09-29T13:25:12.971Z,-91
2016-09-29T13:26:13.025Z,-90
2016-09-29T13:27:13.116Z,-90
2016-09-29T13:28:13.031Z,-90
2016-09-29T13:29:13.108Z,-90
2016-09-29T13:30:12.953Z,-90
2016-09-29T13:31:12.892Z,-93
2016-09-29T13:32:13.478Z,-91
2016-09-29T13:33:12.936Z,-91
2016-09-29T13:34:13.137Z,-91
2016-09-29T13:35:12.870Z,-93
2016-09-29T13:36:12.998Z,-90
2016-09-29T13:37:13.026Z,-92
2016-09-29T13:38:12.898Z,-90
2016-09-29T13:39:12.932Z,-91
2016-09-29T13:40:13.283Z,-91
2016-09-29T13:41:13.082Z,-90
2016-09-29T13:42:13.021Z,-91
2016-09-29T13:43:13.119Z,-92
2016-09-29T13:44:13.038Z,-90
2016-09-29T13:45:13.269Z,-91
2016-09-29T13:46:12.845Z,-90